sensor_id;sensor_type;location;lat;lon;timestamp;P1;durP1;ratioP1;P2;durP2;ratioP2
59824;SDS011;45703;50.898;6.054;2022-09-01T00:01:02;6.60;;;2.42;;
59824;SDS011;45703;50.898;6.054;2022-09-01T00:03:29;6.32;;;2.22;;
59824;SDS011;45703;50.898;6.054;2022-09-01T00:05:55;6.22;;;2.92;;
59824;SDS011;45703;50.898;6.054;2022-09-01T00:08:21;6.18;;;2.30;;
59824;SDS011;45703;50.898;6.054;2022-09-01T00:10:47;6.35;;;2.45;;
59824;SDS011;45703;50.898;6.054;2022-09-01T00:13:14;6.72;;;2.40;;
59824;SDS011;45703;50.898;6.054;2022-09-01T00:15:39;6.85;;;2.42;;
59824;SDS011;45703;50.898;6.054;2022-09-01T00:18:05;6.80;;;2.53;;
59824;SDS011;45703;50.898;6.054;2022-09-01T00:20:31;7.47;;;2.53;;
59824;SDS011;45703;50.898;6.054;2022-09-01T00:22:57;6.22;;;2.40;;
59824;SDS011;45703;50.898;6.054;2022-09-01T00:25:24;6.47;;;2.60;;
59824;SDS011;45703;50.898;6.054;2022-09-01T00:27:52;6.78;;;2.40;;
59824;SDS011;45703;50.898;6.054;2022-09-01T00:30:18;6.95;;;2.75;;
59824;SDS011;45703;50.898;6.054;2022-09-01T00:32:44;6.88;;;2.50;;
59824;SDS011;45703;50.898;6.054;2022-09-01T00:35:11;7.22;;;2.78;;
59824;SDS011;45703;50.898;6.054;2022-09-01T00:37:41;7.78;;;2.75;;
59824;SDS011;45703;50.898;6.054;2022-09-01T00:40:07;6.97;;;2.78;;
59824;SDS011;45703;50.898;6.054;2022-09-01T00:42:35;7.70;;;3.10;;
59824;SDS011;45703;50.898;6.054;2022-09-01T00:45:01;7.03;;;2.90;;
59824;SDS011;45703;50.898;6.054;2022-09-01T00:47:27;6.43;;;2.85;;
59824;SDS011;45703;50.898;6.054;2022-09-01T00:49:53;7.22;;;3.00;;
59824;SDS011;45703;50.898;6.054;2022-09-01T00:54:56;7.40;;;3.25;;
59824;SDS011;45703;50.898;6.054;2022-09-01T00:57:24;7.07;;;3.25;;
59824;SDS011;45703;50.898;6.054;2022-09-01T00:59:57;6.78;;;3.05;;
59824;SDS011;45703;50.898;6.054;2022-09-01T01:02:25;7.50;;;3.22;;
59824;SDS011;45703;50.898;6.054;2022-09-01T01:04:51;7.20;;;3.13;;
59824;SDS011;45703;50.898;6.054;2022-09-01T01:07:19;6.35;;;2.90;;
59824;SDS011;45703;50.898;6.054;2022-09-01T01:09:46;7.63;;;3.10;;
59824;SDS011;45703;50.898;6.054;2022-09-01T01:12:12;6.85;;;3.08;;
59824;SDS011;45703;50.898;6.054;2022-09-01T01:14:42;8.15;;;3.40;;
59824;SDS011;45703;50.898;6.054;2022-09-01T01:17:10;6.47;;;3.15;;
59824;SDS011;45703;50.898;6.054;2022-09-01T01:19:40;8.15;;;3.47;;
59824;SDS011;45703;50.898;6.054;2022-09-01T01:22:28;6.68;;;3.28;;
59824;SDS011;45703;50.898;6.054;2022-09-01T01:25:26;6.93;;;3.20;;
59824;SDS011;45703;50.898;6.054;2022-09-01T01:28:11;7.22;;;3.00;;
59824;SDS011;45703;50.898;6.054;2022-09-01T01:30:40;7.43;;;3.38;;
59824;SDS011;45703;50.898;6.054;2022-09-01T01:33:08;7.10;;;3.67;;
59824;SDS011;45703;50.898;6.054;2022-09-01T01:35:34;7.20;;;3.13;;
59824;SDS011;45703;50.898;6.054;2022-09-01T01:38:00;8.07;;;3.47;;
59824;SDS011;45703;50.898;6.054;2022-09-01T01:40:27;6.10;;;2.60;;
59824;SDS011;45703;50.898;6.054;2022-09-01T01:42:53;6.93;;;3.30;;
59824;SDS011;45703;50.898;6.054;2022-09-01T01:45:21;7.70;;;3.58;;
59824;SDS011;45703;50.898;6.054;2022-09-01T01:47:49;7.93;;;3.65;;
59824;SDS011;45703;50.898;6.054;2022-09-01T01:50:25;7.65;;;3.70;;
59824;SDS011;45703;50.898;6.054;2022-09-01T01:52:57;7.60;;;3.80;;
59824;SDS011;45703;50.898;6.054;2022-09-01T01:55:25;7.30;;;3.67;;
59824;SDS011;45703;50.898;6.054;2022-09-01T01:57:53;7.97;;;3.85;;
59824;SDS011;45703;50.898;6.054;2022-09-01T02:00:21;7.63;;;3.50;;
59824;SDS011;45703;50.898;6.054;2022-09-01T02:02:54;7.90;;;4.13;;
59824;SDS011;45703;50.898;6.054;2022-09-01T02:05:21;7.63;;;4.10;;
59824;SDS011;45703;50.898;6.054;2022-09-01T02:07:50;7.53;;;3.90;;
59824;SDS011;45703;50.898;6.054;2022-09-01T02:10:20;7.80;;;3.88;;
59824;SDS011;45703;50.898;6.054;2022-09-01T02:12:46;7.93;;;3.72;;
59824;SDS011;45703;50.898;6.054;2022-09-01T02:15:12;7.95;;;4.00;;
59824;SDS011;45703;50.898;6.054;2022-09-01T02:17:39;7.93;;;4.35;;
59824;SDS011;45703;50.898;6.054;2022-09-01T02:20:07;8.40;;;4.18;;
59824;SDS011;45703;50.898;6.054;2022-09-01T02:22:33;8.85;;;4.22;;
59824;SDS011;45703;50.898;6.054;2022-09-01T02:25:02;8.77;;;4.28;;
59824;SDS011;45703;50.898;6.054;2022-09-01T02:27:28;7.80;;;4.20;;
59824;SDS011;45703;50.898;6.054;2022-09-01T02:29:54;7.70;;;3.85;;
59824;SDS011;45703;50.898;6.054;2022-09-01T02:32:19;7.07;;;4.03;;
59824;SDS011;45703;50.898;6.054;2022-09-01T02:34:47;7.30;;;3.85;;
59824;SDS011;45703;50.898;6.054;2022-09-01T02:37:18;7.93;;;4.03;;
59824;SDS011;45703;50.898;6.054;2022-09-01T02:39:49;8.30;;;4.07;;
59824;SDS011;45703;50.898;6.054;2022-09-01T02:42:17;7.82;;;3.90;;
59824;SDS011;45703;50.898;6.054;2022-09-01T02:44:42;8.38;;;3.92;;
59824;SDS011;45703;50.898;6.054;2022-09-01T02:47:08;8.68;;;4.28;;
59824;SDS011;45703;50.898;6.054;2022-09-01T02:49:33;6.60;;;3.45;;
59824;SDS011;45703;50.898;6.054;2022-09-01T02:52:00;8.70;;;4.18;;
59824;SDS011;45703;50.898;6.054;2022-09-01T02:54:26;8.68;;;4.50;;
59824;SDS011;45703;50.898;6.054;2022-09-01T02:56:53;7.53;;;3.78;;
59824;SDS011;45703;50.898;6.054;2022-09-01T02:59:20;7.28;;;3.67;;
59824;SDS011;45703;50.898;6.054;2022-09-01T03:01:48;9.05;;;4.20;;
59824;SDS011;45703;50.898;6.054;2022-09-01T03:04:16;7.40;;;3.88;;
59824;SDS011;45703;50.898;6.054;2022-09-01T03:06:42;8.43;;;4.43;;
59824;SDS011;45703;50.898;6.054;2022-09-01T03:09:09;9.55;;;4.28;;
59824;SDS011;45703;50.898;6.054;2022-09-01T03:11:38;9.27;;;4.55;;
59824;SDS011;45703;50.898;6.054;2022-09-01T03:14:05;8.38;;;3.88;;
59824;SDS011;45703;50.898;6.054;2022-09-01T03:16:31;8.02;;;4.38;;
59824;SDS011;45703;50.898;6.054;2022-09-01T03:18:57;8.48;;;4.45;;
59824;SDS011;45703;50.898;6.054;2022-09-01T03:21:23;8.40;;;4.22;;
59824;SDS011;45703;50.898;6.054;2022-09-01T03:23:50;8.90;;;4.50;;
59824;SDS011;45703;50.898;6.054;2022-09-01T03:26:17;8.18;;;4.20;;
59824;SDS011;45703;50.898;6.054;2022-09-01T03:28:46;7.53;;;4.53;;
59824;SDS011;45703;50.898;6.054;2022-09-01T03:31:12;9.45;;;5.07;;
59824;SDS011;45703;50.898;6.054;2022-09-01T03:33:38;8.07;;;4.47;;
59824;SDS011;45703;50.898;6.054;2022-09-01T03:36:05;8.35;;;4.38;;
59824;SDS011;45703;50.898;6.054;2022-09-01T03:38:31;7.75;;;4.07;;
59824;SDS011;45703;50.898;6.054;2022-09-01T03:40:58;8.77;;;4.00;;
59824;SDS011;45703;50.898;6.054;2022-09-01T03:43:29;9.55;;;4.45;;
59824;SDS011;45703;50.898;6.054;2022-09-01T03:45:56;7.70;;;4.50;;
59824;SDS011;45703;50.898;6.054;2022-09-01T03:48:29;7.93;;;4.30;;
59824;SDS011;45703;50.898;6.054;2022-09-01T03:50:56;9.68;;;4.53;;
59824;SDS011;45703;50.898;6.054;2022-09-01T03:53:26;8.15;;;4.32;;
59824;SDS011;45703;50.898;6.054;2022-09-01T03:55:53;9.20;;;4.68;;
59824;SDS011;45703;50.898;6.054;2022-09-01T03:58:21;8.10;;;4.38;;
59824;SDS011;45703;50.898;6.054;2022-09-01T04:00:50;8.07;;;4.95;;
59824;SDS011;45703;50.898;6.054;2022-09-01T04:03:19;8.68;;;4.45;;
59824;SDS011;45703;50.898;6.054;2022-09-01T04:05:47;9.25;;;4.93;;
59824;SDS011;45703;50.898;6.054;2022-09-01T04:08:13;10.25;;;4.93;;
59824;SDS011;45703;50.898;6.054;2022-09-01T04:10:49;8.43;;;4.80;;
59824;SDS011;45703;50.898;6.054;2022-09-01T04:13:17;9.48;;;4.45;;
59824;SDS011;45703;50.898;6.054;2022-09-01T04:15:48;8.15;;;4.65;;
59824;SDS011;45703;50.898;6.054;2022-09-01T04:18:14;8.98;;;4.68;;
59824;SDS011;45703;50.898;6.054;2022-09-01T04:20:53;10.77;;;5.40;;
59824;SDS011;45703;50.898;6.054;2022-09-01T04:28:33;9.38;;;5.32;;
59824;SDS011;45703;50.898;6.054;2022-09-01T04:31:02;8.73;;;4.95;;
59824;SDS011;45703;50.898;6.054;2022-09-01T04:33:30;9.63;;;5.35;;
59824;SDS011;45703;50.898;6.054;2022-09-01T04:36:23;9.32;;;4.63;;
59824;SDS011;45703;50.898;6.054;2022-09-01T04:38:55;10.60;;;5.03;;
59824;SDS011;45703;50.898;6.054;2022-09-01T04:41:23;8.00;;;4.78;;
59824;SDS011;45703;50.898;6.054;2022-09-01T04:43:50;8.23;;;4.65;;
59824;SDS011;45703;50.898;6.054;2022-09-01T04:46:20;9.43;;;4.78;;
59824;SDS011;45703;50.898;6.054;2022-09-01T04:48:47;9.20;;;4.97;;
59824;SDS011;45703;50.898;6.054;2022-09-01T04:51:15;10.80;;;5.28;;
59824;SDS011;45703;50.898;6.054;2022-09-01T04:53:42;11.25;;;5.25;;
59824;SDS011;45703;50.898;6.054;2022-09-01T04:58:38;9.65;;;5.05;;
59824;SDS011;45703;50.898;6.054;2022-09-01T05:01:12;10.60;;;4.65;;
59824;SDS011;45703;50.898;6.054;2022-09-01T05:03:39;9.35;;;5.13;;
59824;SDS011;45703;50.898;6.054;2022-09-01T05:06:04;9.55;;;5.50;;
59824;SDS011;45703;50.898;6.054;2022-09-01T05:08:37;8.68;;;4.50;;
59824;SDS011;45703;50.898;6.054;2022-09-01T05:11:04;9.23;;;4.60;;
59824;SDS011;45703;50.898;6.054;2022-09-01T05:13:31;9.23;;;5.25;;
59824;SDS011;45703;50.898;6.054;2022-09-01T05:16:02;10.85;;;5.18;;
59824;SDS011;45703;50.898;6.054;2022-09-01T05:18:30;8.45;;;4.75;;
59824;SDS011;45703;50.898;6.054;2022-09-01T05:20:56;9.23;;;5.03;;
59824;SDS011;45703;50.898;6.054;2022-09-01T05:23:21;9.05;;;4.75;;
59824;SDS011;45703;50.898;6.054;2022-09-01T05:25:49;8.75;;;4.80;;
59824;SDS011;45703;50.898;6.054;2022-09-01T05:28:19;9.20;;;4.80;;
59824;SDS011;45703;50.898;6.054;2022-09-01T05:30:48;10.33;;;5.30;;
59824;SDS011;45703;50.898;6.054;2022-09-01T05:33:14;8.93;;;4.90;;
59824;SDS011;45703;50.898;6.054;2022-09-01T05:35:51;8.95;;;5.15;;
59824;SDS011;45703;50.898;6.054;2022-09-01T05:38:25;9.05;;;4.78;;
59824;SDS011;45703;50.898;6.054;2022-09-01T05:40:57;10.10;;;5.35;;
59824;SDS011;45703;50.898;6.054;2022-09-01T05:43:28;9.90;;;5.40;;
59824;SDS011;45703;50.898;6.054;2022-09-01T05:45:55;11.15;;;5.93;;
59824;SDS011;45703;50.898;6.054;2022-09-01T05:48:25;9.70;;;4.95;;
59824;SDS011;45703;50.898;6.054;2022-09-01T05:50:52;8.88;;;4.72;;
59824;SDS011;45703;50.898;6.054;2022-09-01T05:53:22;8.15;;;4.63;;
59824;SDS011;45703;50.898;6.054;2022-09-01T05:55:49;7.95;;;4.30;;
59824;SDS011;45703;50.898;6.054;2022-09-01T05:58:18;7.88;;;4.78;;
59824;SDS011;45703;50.898;6.054;2022-09-01T06:00:44;8.10;;;4.22;;
59824;SDS011;45703;50.898;6.054;2022-09-01T06:03:13;9.05;;;4.57;;
59824;SDS011;45703;50.898;6.054;2022-09-01T06:05:40;7.15;;;4.20;;
59824;SDS011;45703;50.898;6.054;2022-09-01T06:08:07;8.30;;;4.72;;
59824;SDS011;45703;50.898;6.054;2022-09-01T06:10:35;7.05;;;4.18;;
59824;SDS011;45703;50.898;6.054;2022-09-01T06:13:04;7.82;;;4.10;;
59824;SDS011;45703;50.898;6.054;2022-09-01T06:15:31;7.57;;;3.95;;
59824;SDS011;45703;50.898;6.054;2022-09-01T06:17:56;7.35;;;4.00;;
59824;SDS011;45703;50.898;6.054;2022-09-01T06:20:23;7.68;;;3.90;;
59824;SDS011;45703;50.898;6.054;2022-09-01T06:22:50;8.15;;;4.10;;
59824;SDS011;45703;50.898;6.054;2022-09-01T06:25:17;7.45;;;3.95;;
59824;SDS011;45703;50.898;6.054;2022-09-01T06:27:44;7.80;;;4.05;;
59824;SDS011;45703;50.898;6.054;2022-09-01T06:30:12;7.38;;;4.05;;
59824;SDS011;45703;50.898;6.054;2022-09-01T06:32:41;8.88;;;4.13;;
59824;SDS011;45703;50.898;6.054;2022-09-01T06:35:09;8.27;;;4.13;;
59824;SDS011;45703;50.898;6.054;2022-09-01T06:37:40;7.25;;;4.07;;
59824;SDS011;45703;50.898;6.054;2022-09-01T06:40:07;8.13;;;4.53;;
59824;SDS011;45703;50.898;6.054;2022-09-01T06:42:34;11.57;;;4.28;;
59824;SDS011;45703;50.898;6.054;2022-09-01T06:45:02;9.85;;;3.72;;
59824;SDS011;45703;50.898;6.054;2022-09-01T06:47:27;7.60;;;3.95;;
59824;SDS011;45703;50.898;6.054;2022-09-01T06:49:56;9.23;;;3.88;;
59824;SDS011;45703;50.898;6.054;2022-09-01T06:52:23;10.10;;;4.50;;
59824;SDS011;45703;50.898;6.054;2022-09-01T06:54:50;9.77;;;4.50;;
59824;SDS011;45703;50.898;6.054;2022-09-01T06:57:18;9.98;;;4.38;;
59824;SDS011;45703;50.898;6.054;2022-09-01T06:59:44;9.15;;;3.40;;
59824;SDS011;45703;50.898;6.054;2022-09-01T07:02:09;9.88;;;4.13;;
59824;SDS011;45703;50.898;6.054;2022-09-01T07:07:07;7.47;;;3.40;;
59824;SDS011;45703;50.898;6.054;2022-09-01T07:09:34;7.22;;;3.65;;
59824;SDS011;45703;50.898;6.054;2022-09-01T07:12:00;8.07;;;3.92;;
59824;SDS011;45703;50.898;6.054;2022-09-01T07:14:28;8.75;;;3.50;;
59824;SDS011;45703;50.898;6.054;2022-09-01T07:16:54;8.40;;;3.40;;
59824;SDS011;45703;50.898;6.054;2022-09-01T07:19:19;8.13;;;3.38;;
59824;SDS011;45703;50.898;6.054;2022-09-01T07:21:45;6.97;;;3.22;;
59824;SDS011;45703;50.898;6.054;2022-09-01T07:24:11;8.40;;;3.30;;
59824;SDS011;45703;50.898;6.054;2022-09-01T07:26:38;7.18;;;3.05;;
59824;SDS011;45703;50.898;6.054;2022-09-01T07:29:05;6.88;;;3.30;;
59824;SDS011;45703;50.898;6.054;2022-09-01T07:31:35;6.68;;;2.92;;
59824;SDS011;45703;50.898;6.054;2022-09-01T07:34:05;7.85;;;2.80;;
59824;SDS011;45703;50.898;6.054;2022-09-01T07:36:36;8.10;;;2.85;;
59824;SDS011;45703;50.898;6.054;2022-09-01T07:39:03;7.63;;;3.38;;
59824;SDS011;45703;50.898;6.054;2022-09-01T07:41:29;8.00;;;2.88;;
59824;SDS011;45703;50.898;6.054;2022-09-01T07:43:56;7.20;;;3.30;;
59824;SDS011;45703;50.898;6.054;2022-09-01T07:46:24;7.85;;;3.70;;
59824;SDS011;45703;50.898;6.054;2022-09-01T07:48:53;7.20;;;3.60;;
59824;SDS011;45703;50.898;6.054;2022-09-01T07:51:20;9.15;;;4.32;;
59824;SDS011;45703;50.898;6.054;2022-09-01T07:53:47;9.82;;;3.63;;
59824;SDS011;45703;50.898;6.054;2022-09-01T07:56:14;6.28;;;3.10;;
59824;SDS011;45703;50.898;6.054;2022-09-01T07:58:43;7.80;;;2.67;;
59824;SDS011;45703;50.898;6.054;2022-09-01T08:01:13;7.88;;;2.50;;
59824;SDS011;45703;50.898;6.054;2022-09-01T08:03:47;8.27;;;2.40;;
59824;SDS011;45703;50.898;6.054;2022-09-01T08:06:16;6.00;;;2.72;;
59824;SDS011;45703;50.898;6.054;2022-09-01T08:08:43;6.45;;;2.40;;
59824;SDS011;45703;50.898;6.054;2022-09-01T08:11:09;6.95;;;2.60;;
59824;SDS011;45703;50.898;6.054;2022-09-01T08:13:41;6.70;;;2.38;;
59824;SDS011;45703;50.898;6.054;2022-09-01T08:16:06;6.38;;;2.28;;
59824;SDS011;45703;50.898;6.054;2022-09-01T08:18:32;5.50;;;2.40;;
59824;SDS011;45703;50.898;6.054;2022-09-01T08:20:58;6.70;;;2.60;;
59824;SDS011;45703;50.898;6.054;2022-09-01T08:23:23;6.22;;;2.67;;
59824;SDS011;45703;50.898;6.054;2022-09-01T08:25:51;8.38;;;2.55;;
59824;SDS011;45703;50.898;6.054;2022-09-01T08:28:19;6.00;;;2.47;;
59824;SDS011;45703;50.898;6.054;2022-09-01T08:30:45;7.25;;;2.10;;
59824;SDS011;45703;50.898;6.054;2022-09-01T08:33:12;7.85;;;2.58;;
59824;SDS011;45703;50.898;6.054;2022-09-01T08:35:39;7.30;;;2.58;;
59824;SDS011;45703;50.898;6.054;2022-09-01T08:38:05;7.63;;;2.40;;
59824;SDS011;45703;50.898;6.054;2022-09-01T08:40:32;6.07;;;2.63;;
59824;SDS011;45703;50.898;6.054;2022-09-01T08:43:14;6.75;;;2.45;;
59824;SDS011;45703;50.898;6.054;2022-09-01T08:45:53;7.38;;;2.40;;
59824;SDS011;45703;50.898;6.054;2022-09-01T08:50:58;6.93;;;2.47;;
59824;SDS011;45703;50.898;6.054;2022-09-01T08:53:34;7.35;;;2.60;;
59824;SDS011;45703;50.898;6.054;2022-09-01T08:56:05;5.63;;;2.13;;
59824;SDS011;45703;50.898;6.054;2022-09-01T08:58:33;5.93;;;2.42;;
59824;SDS011;45703;50.898;6.054;2022-09-01T09:01:00;7.13;;;2.65;;
59824;SDS011;45703;50.898;6.054;2022-09-01T09:03:44;5.72;;;2.42;;
59824;SDS011;45703;50.898;6.054;2022-09-01T09:06:37;6.22;;;2.45;;
59824;SDS011;45703;50.898;6.054;2022-09-01T09:09:26;7.75;;;2.72;;
59824;SDS011;45703;50.898;6.054;2022-09-01T09:14:40;6.30;;;2.67;;
59824;SDS011;45703;50.898;6.054;2022-09-01T09:17:11;5.82;;;2.25;;
59824;SDS011;45703;50.898;6.054;2022-09-01T09:19:41;5.88;;;2.55;;
59824;SDS011;45703;50.898;6.054;2022-09-01T09:22:15;6.45;;;2.50;;
59824;SDS011;45703;50.898;6.054;2022-09-01T09:24:44;7.10;;;2.50;;
59824;SDS011;45703;50.898;6.054;2022-09-01T09:27:21;6.65;;;2.72;;
59824;SDS011;45703;50.898;6.054;2022-09-01T09:29:49;6.68;;;2.28;;
59824;SDS011;45703;50.898;6.054;2022-09-01T09:32:45;5.63;;;2.60;;
59824;SDS011;45703;50.898;6.054;2022-09-01T09:35:18;7.47;;;2.58;;
59824;SDS011;45703;50.898;6.054;2022-09-01T09:40:36;6.20;;;2.58;;
59824;SDS011;45703;50.898;6.054;2022-09-01T09:43:05;6.68;;;2.35;;
59824;SDS011;45703;50.898;6.054;2022-09-01T09:45:33;5.88;;;2.60;;
59824;SDS011;45703;50.898;6.054;2022-09-01T09:47:59;5.40;;;2.30;;
59824;SDS011;45703;50.898;6.054;2022-09-01T09:50:29;6.38;;;2.25;;
59824;SDS011;45703;50.898;6.054;2022-09-01T09:53:14;6.07;;;2.15;;
59824;SDS011;45703;50.898;6.054;2022-09-01T09:58:27;5.78;;;2.30;;
59824;SDS011;45703;50.898;6.054;2022-09-01T10:00:59;5.30;;;2.03;;
59824;SDS011;45703;50.898;6.054;2022-09-01T10:03:37;5.95;;;2.38;;
59824;SDS011;45703;50.898;6.054;2022-09-01T10:06:08;7.15;;;2.22;;
59824;SDS011;45703;50.898;6.054;2022-09-01T10:08:41;6.97;;;2.30;;
59824;SDS011;45703;50.898;6.054;2022-09-01T10:11:10;6.78;;;2.28;;
59824;SDS011;45703;50.898;6.054;2022-09-01T10:13:54;7.57;;;2.42;;
59824;SDS011;45703;50.898;6.054;2022-09-01T10:16:24;6.80;;;2.20;;
59824;SDS011;45703;50.898;6.054;2022-09-01T10:18:54;6.45;;;2.08;;
59824;SDS011;45703;50.898;6.054;2022-09-01T10:23:57;5.78;;;2.22;;
59824;SDS011;45703;50.898;6.054;2022-09-01T10:26:31;5.50;;;1.98;;
59824;SDS011;45703;50.898;6.054;2022-09-01T10:29:00;6.95;;;2.20;;
59824;SDS011;45703;50.898;6.054;2022-09-01T10:31:40;6.05;;;2.00;;
59824;SDS011;45703;50.898;6.054;2022-09-01T10:34:07;6.40;;;1.83;;
59824;SDS011;45703;50.898;6.054;2022-09-01T10:36:37;5.35;;;1.73;;
59824;SDS011;45703;50.898;6.054;2022-09-01T10:41:44;5.95;;;1.75;;
59824;SDS011;45703;50.898;6.054;2022-09-01T10:46:50;5.28;;;1.70;;
59824;SDS011;45703;50.898;6.054;2022-09-01T10:49:20;5.65;;;1.60;;
59824;SDS011;45703;50.898;6.054;2022-09-01T10:51:46;7.70;;;1.80;;
59824;SDS011;45703;50.898;6.054;2022-09-01T10:57:24;5.65;;;1.50;;
59824;SDS011;45703;50.898;6.054;2022-09-01T11:05:57;6.82;;;1.88;;
59824;SDS011;45703;50.898;6.054;2022-09-01T11:13:41;4.85;;;1.50;;
59824;SDS011;45703;50.898;6.054;2022-09-01T11:19:42;5.75;;;1.60;;
59824;SDS011;45703;50.898;6.054;2022-09-01T11:21:42;5.55;;;1.67;;
59824;SDS011;45703;50.898;6.054;2022-09-01T11:27:12;7.72;;;1.92;;
59824;SDS011;45703;50.898;6.054;2022-09-01T11:30:14;4.95;;;1.48;;
59824;SDS011;45703;50.898;6.054;2022-09-01T11:32:45;6.22;;;1.80;;
59824;SDS011;45703;50.898;6.054;2022-09-01T11:35:15;4.70;;;1.50;;
59824;SDS011;45703;50.898;6.054;2022-09-01T11:37:42;5.55;;;1.60;;
59824;SDS011;45703;50.898;6.054;2022-09-01T11:40:12;5.18;;;1.63;;
59824;SDS011;45703;50.898;6.054;2022-09-01T11:42:45;5.35;;;1.55;;
59824;SDS011;45703;50.898;6.054;2022-09-01T11:45:20;5.28;;;1.80;;
59824;SDS011;45703;50.898;6.054;2022-09-01T11:47:54;5.15;;;1.70;;
59824;SDS011;45703;50.898;6.054;2022-09-01T11:50:26;6.22;;;1.67;;
59824;SDS011;45703;50.898;6.054;2022-09-01T11:55:31;4.15;;;1.38;;
59824;SDS011;45703;50.898;6.054;2022-09-01T11:57:59;4.32;;;1.60;;
59824;SDS011;45703;50.898;6.054;2022-09-01T12:00:27;5.30;;;1.50;;
59824;SDS011;45703;50.898;6.054;2022-09-01T12:02:55;4.07;;;1.45;;
59824;SDS011;45703;50.898;6.054;2022-09-01T12:07:53;5.20;;;1.42;;
59824;SDS011;45703;50.898;6.054;2022-09-01T12:10:21;4.93;;;1.60;;
59824;SDS011;45703;50.898;6.054;2022-09-01T12:15:35;5.07;;;1.70;;
59824;SDS011;45703;50.898;6.054;2022-09-01T12:20:49;5.20;;;1.67;;
59824;SDS011;45703;50.898;6.054;2022-09-01T12:25:58;4.70;;;1.70;;
59824;SDS011;45703;50.898;6.054;2022-09-01T12:28:26;5.10;;;1.80;;
59824;SDS011;45703;50.898;6.054;2022-09-01T12:31:01;5.78;;;1.70;;
59824;SDS011;45703;50.898;6.054;2022-09-01T12:33:29;4.95;;;1.80;;
59824;SDS011;45703;50.898;6.054;2022-09-01T12:36:18;4.85;;;1.73;;
59824;SDS011;45703;50.898;6.054;2022-09-01T12:38:52;5.82;;;1.90;;
59824;SDS011;45703;50.898;6.054;2022-09-01T12:41:23;5.95;;;2.40;;
59824;SDS011;45703;50.898;6.054;2022-09-01T12:43:49;6.70;;;2.35;;
59824;SDS011;45703;50.898;6.054;2022-09-01T12:46:38;6.95;;;2.30;;
59824;SDS011;45703;50.898;6.054;2022-09-01T12:49:16;6.45;;;2.53;;
59824;SDS011;45703;50.898;6.054;2022-09-01T12:52:04;5.68;;;2.30;;
59824;SDS011;45703;50.898;6.054;2022-09-01T12:54:34;6.13;;;2.20;;
59824;SDS011;45703;50.898;6.054;2022-09-01T12:57:00;5.88;;;2.30;;
59824;SDS011;45703;50.898;6.054;2022-09-01T12:59:26;5.15;;;2.03;;
59824;SDS011;45703;50.898;6.054;2022-09-01T13:01:51;5.80;;;2.40;;
59824;SDS011;45703;50.898;6.054;2022-09-01T13:06:46;5.95;;;2.10;;
59824;SDS011;45703;50.898;6.054;2022-09-01T13:09:13;5.53;;;2.30;;
59824;SDS011;45703;50.898;6.054;2022-09-01T13:11:38;7.32;;;2.20;;
59824;SDS011;45703;50.898;6.054;2022-09-01T13:14:05;5.82;;;2.00;;
59824;SDS011;45703;50.898;6.054;2022-09-01T13:16:32;7.18;;;2.40;;
59824;SDS011;45703;50.898;6.054;2022-09-01T13:18:59;6.18;;;2.50;;
59824;SDS011;45703;50.898;6.054;2022-09-01T13:21:25;6.60;;;2.33;;
59824;SDS011;45703;50.898;6.054;2022-09-01T13:23:51;5.20;;;2.35;;
59824;SDS011;45703;50.898;6.054;2022-09-01T13:26:17;6.60;;;2.35;;
59824;SDS011;45703;50.898;6.054;2022-09-01T13:28:42;6.70;;;2.45;;
59824;SDS011;45703;50.898;6.054;2022-09-01T13:31:08;5.95;;;2.42;;
59824;SDS011;45703;50.898;6.054;2022-09-01T13:33:34;5.50;;;2.13;;
59824;SDS011;45703;50.898;6.054;2022-09-01T13:36:00;6.65;;;2.30;;
59824;SDS011;45703;50.898;6.054;2022-09-01T13:38:27;5.53;;;2.10;;
59824;SDS011;45703;50.898;6.054;2022-09-01T13:40:52;6.00;;;2.30;;
59824;SDS011;45703;50.898;6.054;2022-09-01T13:43:19;5.22;;;2.10;;
59824;SDS011;45703;50.898;6.054;2022-09-01T13:45:46;6.85;;;2.13;;
59824;SDS011;45703;50.898;6.054;2022-09-01T13:48:12;6.60;;;2.40;;
59824;SDS011;45703;50.898;6.054;2022-09-01T13:50:39;5.45;;;2.30;;
59824;SDS011;45703;50.898;6.054;2022-09-01T13:53:05;6.25;;;2.42;;
59824;SDS011;45703;50.898;6.054;2022-09-01T13:55:35;6.07;;;2.25;;
59824;SDS011;45703;50.898;6.054;2022-09-01T13:58:04;10.13;;;2.90;;
59824;SDS011;45703;50.898;6.054;2022-09-01T14:00:31;6.13;;;2.38;;
59824;SDS011;45703;50.898;6.054;2022-09-01T14:03:00;7.32;;;2.60;;
59824;SDS011;45703;50.898;6.054;2022-09-01T14:05:30;7.18;;;2.13;;
59824;SDS011;45703;50.898;6.054;2022-09-01T14:07:58;6.38;;;2.40;;
59824;SDS011;45703;50.898;6.054;2022-09-01T14:10:26;7.35;;;2.30;;
59824;SDS011;45703;50.898;6.054;2022-09-01T14:12:53;5.93;;;2.22;;
59824;SDS011;45703;50.898;6.054;2022-09-01T14:15:19;5.00;;;2.10;;
59824;SDS011;45703;50.898;6.054;2022-09-01T14:17:46;5.50;;;2.20;;
59824;SDS011;45703;50.898;6.054;2022-09-01T14:20:15;5.82;;;2.20;;
59824;SDS011;45703;50.898;6.054;2022-09-01T14:22:43;6.57;;;2.20;;
59824;SDS011;45703;50.898;6.054;2022-09-01T14:25:09;5.40;;;2.03;;
59824;SDS011;45703;50.898;6.054;2022-09-01T14:27:36;5.93;;;2.30;;
59824;SDS011;45703;50.898;6.054;2022-09-01T14:30:03;6.38;;;2.47;;
59824;SDS011;45703;50.898;6.054;2022-09-01T14:32:31;5.65;;;2.40;;
59824;SDS011;45703;50.898;6.054;2022-09-01T14:34:56;6.25;;;2.70;;
59824;SDS011;45703;50.898;6.054;2022-09-01T14:37:22;6.35;;;2.33;;
59824;SDS011;45703;50.898;6.054;2022-09-01T14:39:55;5.90;;;2.25;;
59824;SDS011;45703;50.898;6.054;2022-09-01T14:42:21;5.90;;;2.50;;
59824;SDS011;45703;50.898;6.054;2022-09-01T14:44:49;6.18;;;2.60;;
59824;SDS011;45703;50.898;6.054;2022-09-01T14:47:15;7.30;;;2.30;;
59824;SDS011;45703;50.898;6.054;2022-09-01T14:49:41;5.32;;;2.30;;
59824;SDS011;45703;50.898;6.054;2022-09-01T14:52:07;6.95;;;2.40;;
59824;SDS011;45703;50.898;6.054;2022-09-01T14:54:34;6.20;;;2.58;;
59824;SDS011;45703;50.898;6.054;2022-09-01T14:57:00;5.78;;;2.38;;
59824;SDS011;45703;50.898;6.054;2022-09-01T14:59:26;7.25;;;2.60;;
59824;SDS011;45703;50.898;6.054;2022-09-01T15:01:52;6.47;;;2.60;;
59824;SDS011;45703;50.898;6.054;2022-09-01T15:04:17;5.82;;;2.88;;
59824;SDS011;45703;50.898;6.054;2022-09-01T15:06:43;6.82;;;2.55;;
59824;SDS011;45703;50.898;6.054;2022-09-01T15:09:08;5.57;;;2.35;;
59824;SDS011;45703;50.898;6.054;2022-09-01T15:11:34;5.50;;;2.60;;
59824;SDS011;45703;50.898;6.054;2022-09-01T15:13:59;6.38;;;2.80;;
59824;SDS011;45703;50.898;6.054;2022-09-01T15:16:25;7.70;;;2.47;;
59824;SDS011;45703;50.898;6.054;2022-09-01T15:18:52;6.25;;;2.30;;
59824;SDS011;45703;50.898;6.054;2022-09-01T15:21:26;5.43;;;2.42;;
59824;SDS011;45703;50.898;6.054;2022-09-01T15:23:54;7.50;;;2.60;;
59824;SDS011;45703;50.898;6.054;2022-09-01T15:26:20;6.00;;;2.63;;
59824;SDS011;45703;50.898;6.054;2022-09-01T15:28:46;6.20;;;2.45;;
59824;SDS011;45703;50.898;6.054;2022-09-01T15:31:13;5.60;;;2.42;;
59824;SDS011;45703;50.898;6.054;2022-09-01T15:33:42;6.07;;;2.43;;
59824;SDS011;45703;50.898;6.054;2022-09-01T15:36:11;7.05;;;2.60;;
59824;SDS011;45703;50.898;6.054;2022-09-01T15:38:40;6.82;;;2.42;;
59824;SDS011;45703;50.898;6.054;2022-09-01T15:41:06;5.82;;;2.40;;
59824;SDS011;45703;50.898;6.054;2022-09-01T15:43:31;6.30;;;2.33;;
59824;SDS011;45703;50.898;6.054;2022-09-01T15:45:57;6.03;;;2.40;;
59824;SDS011;45703;50.898;6.054;2022-09-01T15:48:25;5.90;;;2.50;;
59824;SDS011;45703;50.898;6.054;2022-09-01T15:50:51;5.70;;;2.55;;
59824;SDS011;45703;50.898;6.054;2022-09-01T15:53:18;6.38;;;2.70;;
59824;SDS011;45703;50.898;6.054;2022-09-01T15:55:44;6.00;;;2.50;;
59824;SDS011;45703;50.898;6.054;2022-09-01T15:58:13;5.60;;;2.60;;
59824;SDS011;45703;50.898;6.054;2022-09-01T16:00:40;5.90;;;2.45;;
59824;SDS011;45703;50.898;6.054;2022-09-01T16:03:06;6.25;;;2.30;;
59824;SDS011;45703;50.898;6.054;2022-09-01T16:05:32;6.53;;;2.53;;